sensor_id;sensor_type;location;lat;lon;timestamp;P1;durP1;ratioP1;P2;durP2;ratioP2
34673;SDS011;20879;55.668;37.858;2023-04-24T00:01:36;17.45;;;6.78;;
34673;SDS011;20879;55.668;37.858;2023-04-24T00:04:06;20.85;;;7.72;;
34673;SDS011;20879;55.668;37.858;2023-04-24T00:06:37;20.30;;;7.65;;
34673;SDS011;20879;55.668;37.858;2023-04-24T00:11:38;15.82;;;7.10;;
34673;SDS011;20879;55.668;37.858;2023-04-24T00:14:07;17.55;;;6.95;;
34673;SDS011;20879;55.668;37.858;2023-04-24T00:16:38;18.85;;;8.05;;
34673;SDS011;20879;55.668;37.858;2023-04-24T00:19:08;16.92;;;7.63;;
34673;SDS011;20879;55.668;37.858;2023-04-24T00:21:39;16.05;;;6.90;;
34673;SDS011;20879;55.668;37.858;2023-04-24T00:24:09;12.82;;;6.82;;
34673;SDS011;20879;55.668;37.858;2023-04-24T00:26:43;12.60;;;7.07;;
34673;SDS011;20879;55.668;37.858;2023-04-24T00:29:13;14.73;;;7.32;;
34673;SDS011;20879;55.668;37.858;2023-04-24T00:31:50;16.92;;;7.22;;
34673;SDS011;20879;55.668;37.858;2023-04-24T00:34:20;19.58;;;6.88;;
34673;SDS011;20879;55.668;37.858;2023-04-24T00:36:49;17.95;;;7.50;;
34673;SDS011;20879;55.668;37.858;2023-04-24T00:39:19;15.32;;;7.53;;
34673;SDS011;20879;55.668;37.858;2023-04-24T00:41:49;14.55;;;7.25;;
34673;SDS011;20879;55.668;37.858;2023-04-24T00:44:20;20.48;;;7.28;;
34673;SDS011;20879;55.668;37.858;2023-04-24T00:46:51;30.48;;;7.97;;
34673;SDS011;20879;55.668;37.858;2023-04-24T00:49:24;15.30;;;6.90;;
34673;SDS011;20879;55.668;37.858;2023-04-24T00:51:53;17.40;;;7.60;;
34673;SDS011;20879;55.668;37.858;2023-04-24T00:54:23;24.42;;;8.45;;
34673;SDS011;20879;55.668;37.858;2023-04-24T00:56:52;31.85;;;9.52;;
34673;SDS011;20879;55.668;37.858;2023-04-24T00:59:21;27.08;;;9.25;;
34673;SDS011;20879;55.668;37.858;2023-04-24T01:01:52;26.85;;;8.70;;
34673;SDS011;20879;55.668;37.858;2023-04-24T01:04:28;29.20;;;10.68;;
34673;SDS011;20879;55.668;37.858;2023-04-24T01:06:58;22.73;;;8.73;;
34673;SDS011;20879;55.668;37.858;2023-04-24T01:09:27;22.30;;;8.35;;
34673;SDS011;20879;55.668;37.858;2023-04-24T01:11:57;21.08;;;8.75;;
34673;SDS011;20879;55.668;37.858;2023-04-24T01:14:37;27.42;;;10.00;;
34673;SDS011;20879;55.668;37.858;2023-04-24T01:17:10;23.75;;;9.50;;
34673;SDS011;20879;55.668;37.858;2023-04-24T01:22:13;25.55;;;8.88;;
34673;SDS011;20879;55.668;37.858;2023-04-24T01:24:43;31.58;;;10.95;;
34673;SDS011;20879;55.668;37.858;2023-04-24T01:27:14;26.20;;;9.15;;
34673;SDS011;20879;55.668;37.858;2023-04-24T01:29:44;23.00;;;9.10;;
34673;SDS011;20879;55.668;37.858;2023-04-24T01:32:21;29.42;;;9.25;;
34673;SDS011;20879;55.668;37.858;2023-04-24T01:34:55;27.90;;;10.02;;
34673;SDS011;20879;55.668;37.858;2023-04-24T01:37:27;29.33;;;10.48;;
34673;SDS011;20879;55.668;37.858;2023-04-24T01:40:04;35.78;;;10.25;;
34673;SDS011;20879;55.668;37.858;2023-04-24T01:42:35;25.95;;;8.88;;
34673;SDS011;20879;55.668;37.858;2023-04-24T01:45:05;26.10;;;8.82;;
34673;SDS011;20879;55.668;37.858;2023-04-24T01:47:37;23.42;;;10.68;;
34673;SDS011;20879;55.668;37.858;2023-04-24T01:50:07;24.05;;;10.23;;
34673;SDS011;20879;55.668;37.858;2023-04-24T01:52:40;25.63;;;10.38;;
34673;SDS011;20879;55.668;37.858;2023-04-24T01:55:09;25.70;;;9.60;;
34673;SDS011;20879;55.668;37.858;2023-04-24T01:57:39;29.92;;;9.63;;
34673;SDS011;20879;55.668;37.858;2023-04-24T02:00:09;26.95;;;9.40;;
34673;SDS011;20879;55.668;37.858;2023-04-24T02:02:40;27.40;;;10.00;;
34673;SDS011;20879;55.668;37.858;2023-04-24T02:05:14;48.15;;;12.48;;
34673;SDS011;20879;55.668;37.858;2023-04-24T02:07:45;23.17;;;9.60;;
34673;SDS011;20879;55.668;37.858;2023-04-24T02:10:14;28.65;;;9.73;;
34673;SDS011;20879;55.668;37.858;2023-04-24T02:12:45;17.70;;;8.63;;
34673;SDS011;20879;55.668;37.858;2023-04-24T02:15:16;23.58;;;9.57;;
34673;SDS011;20879;55.668;37.858;2023-04-24T02:17:51;22.20;;;9.05;;
34673;SDS011;20879;55.668;37.858;2023-04-24T02:20:20;24.27;;;8.80;;
34673;SDS011;20879;55.668;37.858;2023-04-24T02:22:51;24.52;;;8.43;;
34673;SDS011;20879;55.668;37.858;2023-04-24T02:25:31;27.98;;;9.40;;
34673;SDS011;20879;55.668;37.858;2023-04-24T02:28:01;23.85;;;9.52;;
34673;SDS011;20879;55.668;37.858;2023-04-24T02:30:33;25.42;;;9.90;;
34673;SDS011;20879;55.668;37.858;2023-04-24T02:33:07;44.35;;;10.48;;
34673;SDS011;20879;55.668;37.858;2023-04-24T02:35:37;38.10;;;11.57;;
34673;SDS011;20879;55.668;37.858;2023-04-24T02:38:08;29.73;;;11.10;;
34673;SDS011;20879;55.668;37.858;2023-04-24T02:40:39;31.65;;;10.18;;
34673;SDS011;20879;55.668;37.858;2023-04-24T02:43:09;30.00;;;10.57;;
34673;SDS011;20879;55.668;37.858;2023-04-24T02:45:39;39.50;;;13.50;;
34673;SDS011;20879;55.668;37.858;2023-04-24T02:48:09;34.78;;;12.35;;
34673;SDS011;20879;55.668;37.858;2023-04-24T02:50:38;32.45;;;10.43;;
34673;SDS011;20879;55.668;37.858;2023-04-24T02:55:50;32.38;;;12.57;;
34673;SDS011;20879;55.668;37.858;2023-04-24T02:58:20;31.08;;;12.50;;
34673;SDS011;20879;55.668;37.858;2023-04-24T03:00:52;39.38;;;11.50;;
34673;SDS011;20879;55.668;37.858;2023-04-24T03:03:22;32.22;;;11.00;;
34673;SDS011;20879;55.668;37.858;2023-04-24T03:05:57;33.03;;;10.70;;
34673;SDS011;20879;55.668;37.858;2023-04-24T03:08:29;29.90;;;10.95;;
34673;SDS011;20879;55.668;37.858;2023-04-24T03:10:58;34.40;;;12.20;;
34673;SDS011;20879;55.668;37.858;2023-04-24T03:13:34;31.45;;;11.73;;
34673;SDS011;20879;55.668;37.858;2023-04-24T03:16:03;31.40;;;11.57;;
34673;SDS011;20879;55.668;37.858;2023-04-24T03:18:33;30.83;;;11.30;;
34673;SDS011;20879;55.668;37.858;2023-04-24T03:21:04;34.33;;;11.98;;
34673;SDS011;20879;55.668;37.858;2023-04-24T03:23:36;37.17;;;11.95;;
34673;SDS011;20879;55.668;37.858;2023-04-24T03:26:09;29.55;;;11.75;;
34673;SDS011;20879;55.668;37.858;2023-04-24T03:28:49;28.15;;;11.50;;
34673;SDS011;20879;55.668;37.858;2023-04-24T03:31:20;25.17;;;11.50;;
34673;SDS011;20879;55.668;37.858;2023-04-24T03:33:50;33.40;;;11.68;;
34673;SDS011;20879;55.668;37.858;2023-04-24T03:36:25;29.25;;;11.93;;
34673;SDS011;20879;55.668;37.858;2023-04-24T03:39:02;35.08;;;12.45;;
34673;SDS011;20879;55.668;37.858;2023-04-24T03:41:33;30.88;;;12.57;;
34673;SDS011;20879;55.668;37.858;2023-04-24T03:44:10;27.88;;;11.45;;
34673;SDS011;20879;55.668;37.858;2023-04-24T03:46:40;36.58;;;12.93;;
34673;SDS011;20879;55.668;37.858;2023-04-24T03:51:54;33.25;;;12.38;;
34673;SDS011;20879;55.668;37.858;2023-04-24T03:57:05;28.67;;;11.93;;
34673;SDS011;20879;55.668;37.858;2023-04-24T03:59:38;31.77;;;11.70;;
34673;SDS011;20879;55.668;37.858;2023-04-24T04:02:14;30.85;;;12.13;;
34673;SDS011;20879;55.668;37.858;2023-04-24T04:04:54;23.20;;;11.30;;
34673;SDS011;20879;55.668;37.858;2023-04-24T04:07:25;25.65;;;12.32;;
34673;SDS011;20879;55.668;37.858;2023-04-24T04:09:58;27.50;;;11.82;;
34673;SDS011;20879;55.668;37.858;2023-04-24T04:12:29;26.27;;;12.05;;
34673;SDS011;20879;55.668;37.858;2023-04-24T04:14:58;22.95;;;12.35;;
34673;SDS011;20879;55.668;37.858;2023-04-24T04:20:12;22.25;;;11.02;;
34673;SDS011;20879;55.668;37.858;2023-04-24T04:22:42;28.90;;;11.77;;
34673;SDS011;20879;55.668;37.858;2023-04-24T04:25:18;24.42;;;11.60;;
34673;SDS011;20879;55.668;37.858;2023-04-24T04:27:53;27.15;;;11.45;;
34673;SDS011;20879;55.668;37.858;2023-04-24T04:30:22;28.88;;;11.48;;
34673;SDS011;20879;55.668;37.858;2023-04-24T04:33:02;25.23;;;11.57;;
34673;SDS011;20879;55.668;37.858;2023-04-24T04:35:35;34.40;;;11.95;;
34673;SDS011;20879;55.668;37.858;2023-04-24T04:38:09;32.60;;;11.38;;
34673;SDS011;20879;55.668;37.858;2023-04-24T04:41:04;24.77;;;9.70;;
34673;SDS011;20879;55.668;37.858;2023-04-24T04:43:34;27.58;;;9.80;;
34673;SDS011;20879;55.668;37.858;2023-04-24T04:46:04;22.35;;;9.80;;
34673;SDS011;20879;55.668;37.858;2023-04-24T04:48:55;22.92;;;8.48;;
34673;SDS011;20879;55.668;37.858;2023-04-24T04:54:09;19.85;;;8.85;;
34673;SDS011;20879;55.668;37.858;2023-04-24T04:56:41;19.85;;;9.40;;
34673;SDS011;20879;55.668;37.858;2023-04-24T04:59:11;19.95;;;9.52;;
34673;SDS011;20879;55.668;37.858;2023-04-24T05:01:40;24.73;;;10.32;;
34673;SDS011;20879;55.668;37.858;2023-04-24T05:04:12;20.52;;;9.93;;
34673;SDS011;20879;55.668;37.858;2023-04-24T05:06:43;19.73;;;10.07;;
34673;SDS011;20879;55.668;37.858;2023-04-24T05:09:13;26.40;;;10.90;;
34673;SDS011;20879;55.668;37.858;2023-04-24T05:11:50;24.98;;;11.30;;
34673;SDS011;20879;55.668;37.858;2023-04-24T05:14:21;25.45;;;10.85;;
34673;SDS011;20879;55.668;37.858;2023-04-24T05:16:51;23.10;;;10.30;;
34673;SDS011;20879;55.668;37.858;2023-04-24T05:19:26;21.77;;;10.30;;
34673;SDS011;20879;55.668;37.858;2023-04-24T05:21:55;22.25;;;10.10;;
34673;SDS011;20879;55.668;37.858;2023-04-24T05:24:30;22.15;;;9.88;;
34673;SDS011;20879;55.668;37.858;2023-04-24T05:27:19;24.90;;;10.18;;
34673;SDS011;20879;55.668;37.858;2023-04-24T05:29:49;25.98;;;9.65;;
34673;SDS011;20879;55.668;37.858;2023-04-24T05:32:18;23.98;;;9.82;;
34673;SDS011;20879;55.668;37.858;2023-04-24T05:34:48;19.88;;;9.75;;
34673;SDS011;20879;55.668;37.858;2023-04-24T05:37:17;22.67;;;9.05;;
34673;SDS011;20879;55.668;37.858;2023-04-24T05:39:47;21.38;;;9.48;;
34673;SDS011;20879;55.668;37.858;2023-04-24T05:42:16;22.10;;;9.15;;
34673;SDS011;20879;55.668;37.858;2023-04-24T05:44:47;26.02;;;10.18;;
34673;SDS011;20879;55.668;37.858;2023-04-24T05:47:33;22.13;;;8.93;;
34673;SDS011;20879;55.668;37.858;2023-04-24T05:50:03;22.50;;;9.75;;
34673;SDS011;20879;55.668;37.858;2023-04-24T05:52:43;22.17;;;9.65;;
34673;SDS011;20879;55.668;37.858;2023-04-24T05:55:23;24.10;;;10.05;;
34673;SDS011;20879;55.668;37.858;2023-04-24T05:57:53;21.02;;;9.07;;
34673;SDS011;20879;55.668;37.858;2023-04-24T06:00:26;17.20;;;8.93;;
34673;SDS011;20879;55.668;37.858;2023-04-24T06:03:02;20.40;;;8.77;;
34673;SDS011;20879;55.668;37.858;2023-04-24T06:05:33;21.00;;;9.02;;
34673;SDS011;20879;55.668;37.858;2023-04-24T06:08:02;19.58;;;8.77;;
34673;SDS011;20879;55.668;37.858;2023-04-24T06:10:36;20.98;;;9.15;;
34673;SDS011;20879;55.668;37.858;2023-04-24T06:15:43;23.15;;;7.53;;
34673;SDS011;20879;55.668;37.858;2023-04-24T06:18:19;16.48;;;7.32;;
34673;SDS011;20879;55.668;37.858;2023-04-24T06:20:49;22.75;;;7.72;;
34673;SDS011;20879;55.668;37.858;2023-04-24T06:23:18;19.08;;;7.80;;
34673;SDS011;20879;55.668;37.858;2023-04-24T06:25:53;20.67;;;7.82;;
34673;SDS011;20879;55.668;37.858;2023-04-24T06:28:22;16.00;;;7.15;;
34673;SDS011;20879;55.668;37.858;2023-04-24T06:30:54;15.57;;;6.53;;
34673;SDS011;20879;55.668;37.858;2023-04-24T06:33:23;22.58;;;7.05;;
34673;SDS011;20879;55.668;37.858;2023-04-24T06:35:53;12.45;;;6.57;;
34673;SDS011;20879;55.668;37.858;2023-04-24T06:38:22;15.82;;;6.80;;
34673;SDS011;20879;55.668;37.858;2023-04-24T06:40:52;10.70;;;5.88;;
34673;SDS011;20879;55.668;37.858;2023-04-24T06:43:21;17.30;;;6.20;;
34673;SDS011;20879;55.668;37.858;2023-04-24T06:45:51;16.65;;;6.03;;
34673;SDS011;20879;55.668;37.858;2023-04-24T06:48:25;13.32;;;6.55;;
34673;SDS011;20879;55.668;37.858;2023-04-24T06:50:55;13.93;;;6.00;;
34673;SDS011;20879;55.668;37.858;2023-04-24T06:53:24;17.42;;;6.10;;
34673;SDS011;20879;55.668;37.858;2023-04-24T06:55:54;14.70;;;5.72;;
34673;SDS011;20879;55.668;37.858;2023-04-24T06:58:23;19.20;;;6.38;;
34673;SDS011;20879;55.668;37.858;2023-04-24T07:00:54;20.63;;;6.30;;
34673;SDS011;20879;55.668;37.858;2023-04-24T07:03:30;15.00;;;5.32;;
34673;SDS011;20879;55.668;37.858;2023-04-24T07:06:05;16.05;;;5.38;;
34673;SDS011;20879;55.668;37.858;2023-04-24T07:08:50;14.60;;;5.50;;
34673;SDS011;20879;55.668;37.858;2023-04-24T07:11:20;14.98;;;5.93;;
34673;SDS011;20879;55.668;37.858;2023-04-24T07:13:49;15.10;;;5.28;;
34673;SDS011;20879;55.668;37.858;2023-04-24T07:16:18;12.05;;;5.13;;
34673;SDS011;20879;55.668;37.858;2023-04-24T07:18:50;12.60;;;4.95;;
34673;SDS011;20879;55.668;37.858;2023-04-24T07:21:25;9.90;;;5.03;;
34673;SDS011;20879;55.668;37.858;2023-04-24T07:23:54;12.43;;;5.32;;
34673;SDS011;20879;55.668;37.858;2023-04-24T07:26:23;9.50;;;4.60;;
34673;SDS011;20879;55.668;37.858;2023-04-24T07:28:53;16.00;;;5.47;;
34673;SDS011;20879;55.668;37.858;2023-04-24T07:31:23;16.48;;;4.47;;
34673;SDS011;20879;55.668;37.858;2023-04-24T07:33:58;14.60;;;5.65;;
34673;SDS011;20879;55.668;37.858;2023-04-24T07:36:34;10.05;;;4.78;;
34673;SDS011;20879;55.668;37.858;2023-04-24T07:39:04;20.40;;;5.82;;
34673;SDS011;20879;55.668;37.858;2023-04-24T07:41:34;22.00;;;5.15;;
34673;SDS011;20879;55.668;37.858;2023-04-24T07:44:09;14.75;;;5.22;;
34673;SDS011;20879;55.668;37.858;2023-04-24T07:46:38;12.85;;;4.88;;
34673;SDS011;20879;55.668;37.858;2023-04-24T07:49:10;14.48;;;5.13;;
34673;SDS011;20879;55.668;37.858;2023-04-24T07:51:41;13.52;;;4.72;;
34673;SDS011;20879;55.668;37.858;2023-04-24T07:54:11;17.40;;;5.22;;
34673;SDS011;20879;55.668;37.858;2023-04-24T07:56:40;14.95;;;4.47;;
34673;SDS011;20879;55.668;37.858;2023-04-24T07:59:15;10.82;;;4.32;;
34673;SDS011;20879;55.668;37.858;2023-04-24T08:01:50;11.32;;;4.32;;
34673;SDS011;20879;55.668;37.858;2023-04-24T08:04:22;13.55;;;4.60;;
34673;SDS011;20879;55.668;37.858;2023-04-24T08:09:34;11.38;;;4.43;;
34673;SDS011;20879;55.668;37.858;2023-04-24T08:12:03;14.75;;;5.38;;
34673;SDS011;20879;55.668;37.858;2023-04-24T08:14:33;8.55;;;4.50;;
34673;SDS011;20879;55.668;37.858;2023-04-24T08:17:02;12.13;;;5.00;;
34673;SDS011;20879;55.668;37.858;2023-04-24T08:22:31;7.65;;;4.10;;
34673;SDS011;20879;55.668;37.858;2023-04-24T08:25:07;6.55;;;3.65;;
34673;SDS011;20879;55.668;37.858;2023-04-24T08:27:37;7.03;;;3.90;;
34673;SDS011;20879;55.668;37.858;2023-04-24T08:30:20;5.85;;;3.78;;
34673;SDS011;20879;55.668;37.858;2023-04-24T08:32:49;5.78;;;3.78;;
34673;SDS011;20879;55.668;37.858;2023-04-24T08:35:21;10.48;;;4.10;;
34673;SDS011;20879;55.668;37.858;2023-04-24T08:37:51;9.32;;;4.13;;
34673;SDS011;20879;55.668;37.858;2023-04-24T08:40:22;8.27;;;4.40;;
34673;SDS011;20879;55.668;37.858;2023-04-24T08:42:56;8.18;;;3.90;;
34673;SDS011;20879;55.668;37.858;2023-04-24T08:45:28;8.75;;;4.10;;
34673;SDS011;20879;55.668;37.858;2023-04-24T08:47:59;7.50;;;4.43;;
34673;SDS011;20879;55.668;37.858;2023-04-24T08:50:30;10.02;;;4.22;;
34673;SDS011;20879;55.668;37.858;2023-04-24T08:53:01;6.88;;;4.05;;
34673;SDS011;20879;55.668;37.858;2023-04-24T08:55:37;11.50;;;4.60;;
34673;SDS011;20879;55.668;37.858;2023-04-24T08:58:20;13.27;;;4.75;;
34673;SDS011;20879;55.668;37.858;2023-04-24T09:00:50;8.10;;;4.00;;
34673;SDS011;20879;55.668;37.858;2023-04-24T09:03:19;9.55;;;4.75;;
34673;SDS011;20879;55.668;37.858;2023-04-24T09:05:52;6.95;;;4.18;;
34673;SDS011;20879;55.668;37.858;2023-04-24T09:08:26;8.65;;;4.78;;
34673;SDS011;20879;55.668;37.858;2023-04-24T09:10:56;11.57;;;4.85;;
34673;SDS011;20879;55.668;37.858;2023-04-24T09:13:29;6.93;;;3.83;;
34673;SDS011;20879;55.668;37.858;2023-04-24T09:16:05;9.07;;;4.40;;
34673;SDS011;20879;55.668;37.858;2023-04-24T09:18:34;8.85;;;4.50;;
34673;SDS011;20879;55.668;37.858;2023-04-24T09:21:10;8.10;;;4.35;;
34673;SDS011;20879;55.668;37.858;2023-04-24T09:26:25;18.90;;;5.30;;
34673;SDS011;20879;55.668;37.858;2023-04-24T09:28:58;16.30;;;5.20;;
34673;SDS011;20879;55.668;37.858;2023-04-24T09:31:28;10.77;;;4.85;;
34673;SDS011;20879;55.668;37.858;2023-04-24T09:34:02;8.07;;;4.55;;
34673;SDS011;20879;55.668;37.858;2023-04-24T09:36:36;14.30;;;5.35;;
34673;SDS011;20879;55.668;37.858;2023-04-24T09:39:08;12.85;;;4.95;;
34673;SDS011;20879;55.668;37.858;2023-04-24T09:41:43;12.77;;;5.10;;
34673;SDS011;20879;55.668;37.858;2023-04-24T09:44:19;11.05;;;4.57;;
34673;SDS011;20879;55.668;37.858;2023-04-24T09:46:50;6.82;;;3.90;;
34673;SDS011;20879;55.668;37.858;2023-04-24T09:51:53;11.63;;;4.40;;
34673;SDS011;20879;55.668;37.858;2023-04-24T09:54:37;7.75;;;4.55;;
34673;SDS011;20879;55.668;37.858;2023-04-24T09:57:09;8.88;;;4.80;;
34673;SDS011;20879;55.668;37.858;2023-04-24T09:59:45;10.13;;;4.68;;
34673;SDS011;20879;55.668;37.858;2023-04-24T10:02:19;11.70;;;4.53;;
34673;SDS011;20879;55.668;37.858;2023-04-24T10:04:54;10.20;;;4.50;;
34673;SDS011;20879;55.668;37.858;2023-04-24T10:07:34;10.18;;;4.60;;
34673;SDS011;20879;55.668;37.858;2023-04-24T10:10:06;7.47;;;4.43;;
34673;SDS011;20879;55.668;37.858;2023-04-24T10:12:41;6.80;;;4.00;;
34673;SDS011;20879;55.668;37.858;2023-04-24T10:15:11;9.50;;;4.45;;
34673;SDS011;20879;55.668;37.858;2023-04-24T10:17:42;11.18;;;4.65;;
34673;SDS011;20879;55.668;37.858;2023-04-24T10:20:22;11.07;;;4.75;;
34673;SDS011;20879;55.668;37.858;2023-04-24T10:22:55;15.23;;;4.60;;
34673;SDS011;20879;55.668;37.858;2023-04-24T10:25:27;7.50;;;4.47;;
34673;SDS011;20879;55.668;37.858;2023-04-24T10:30:28;8.20;;;3.85;;
34673;SDS011;20879;55.668;37.858;2023-04-24T10:35:38;10.35;;;4.32;;
34673;SDS011;20879;55.668;37.858;2023-04-24T10:38:24;10.10;;;4.35;;
34673;SDS011;20879;55.668;37.858;2023-04-24T10:41:06;11.25;;;4.15;;
34673;SDS011;20879;55.668;37.858;2023-04-24T10:46:36;12.27;;;4.75;;
34673;SDS011;20879;55.668;37.858;2023-04-24T10:49:14;13.57;;;3.90;;
34673;SDS011;20879;55.668;37.858;2023-04-24T10:51:45;8.02;;;3.80;;
34673;SDS011;20879;55.668;37.858;2023-04-24T11:00:11;6.45;;;3.85;;
34673;SDS011;20879;55.668;37.858;2023-04-24T11:02:45;10.15;;;4.05;;
34673;SDS011;20879;55.668;37.858;2023-04-24T11:08:24;8.93;;;3.90;;
34673;SDS011;20879;55.668;37.858;2023-04-24T11:11:08;10.18;;;3.85;;
34673;SDS011;20879;55.668;37.858;2023-04-24T11:16:44;8.52;;;3.60;;
34673;SDS011;20879;55.668;37.858;2023-04-24T11:19:26;6.20;;;3.70;;
34673;SDS011;20879;55.668;37.858;2023-04-24T11:21:57;5.70;;;3.70;;
34673;SDS011;20879;55.668;37.858;2023-04-24T11:24:30;7.32;;;3.63;;
34673;SDS011;20879;55.668;37.858;2023-04-24T11:27:19;5.68;;;3.50;;
34673;SDS011;20879;55.668;37.858;2023-04-24T11:29:58;7.07;;;3.78;;
34673;SDS011;20879;55.668;37.858;2023-04-24T11:32:35;7.40;;;3.45;;
34673;SDS011;20879;55.668;37.858;2023-04-24T11:35:06;7.03;;;3.50;;
34673;SDS011;20879;55.668;37.858;2023-04-24T11:37:38;9.73;;;3.90;;
34673;SDS011;20879;55.668;37.858;2023-04-24T11:42:41;5.95;;;3.00;;
34673;SDS011;20879;55.668;37.858;2023-04-24T11:45:13;7.90;;;3.05;;
34673;SDS011;20879;55.668;37.858;2023-04-24T11:47:43;8.98;;;3.25;;
34673;SDS011;20879;55.668;37.858;2023-04-24T11:50:15;8.77;;;3.55;;
34673;SDS011;20879;55.668;37.858;2023-04-24T11:52:47;5.97;;;3.17;;
34673;SDS011;20879;55.668;37.858;2023-04-24T11:55:28;8.32;;;3.30;;
34673;SDS011;20879;55.668;37.858;2023-04-24T11:58:00;6.97;;;3.83;;
34673;SDS011;20879;55.668;37.858;2023-04-24T12:03:04;8.90;;;3.42;;
34673;SDS011;20879;55.668;37.858;2023-04-24T12:05:35;11.80;;;3.88;;
34673;SDS011;20879;55.668;37.858;2023-04-24T12:08:05;12.00;;;4.03;;
34673;SDS011;20879;55.668;37.858;2023-04-24T12:10:35;7.53;;;3.60;;
34673;SDS011;20879;55.668;37.858;2023-04-24T12:13:11;10.63;;;3.95;;
34673;SDS011;20879;55.668;37.858;2023-04-24T12:15:42;5.97;;;3.35;;
34673;SDS011;20879;55.668;37.858;2023-04-24T12:18:16;7.20;;;3.08;;
34673;SDS011;20879;55.668;37.858;2023-04-24T12:20:46;3.80;;;3.05;;
34673;SDS011;20879;55.668;37.858;2023-04-24T12:23:15;7.30;;;2.83;;
34673;SDS011;20879;55.668;37.858;2023-04-24T12:25:46;6.00;;;3.43;;
34673;SDS011;20879;55.668;37.858;2023-04-24T12:28:17;7.07;;;3.17;;
34673;SDS011;20879;55.668;37.858;2023-04-24T12:30:47;6.25;;;3.45;;
34673;SDS011;20879;55.668;37.858;2023-04-24T12:33:17;11.00;;;3.67;;
34673;SDS011;20879;55.668;37.858;2023-04-24T12:35:47;12.88;;;4.10;;
34673;SDS011;20879;55.668;37.858;2023-04-24T12:38:22;7.63;;;3.25;;
34673;SDS011;20879;55.668;37.858;2023-04-24T12:41:01;9.25;;;3.25;;
34673;SDS011;20879;55.668;37.858;2023-04-24T12:43:33;10.10;;;3.20;;
34673;SDS011;20879;55.668;37.858;2023-04-24T12:51:52;7.10;;;3.40;;
34673;SDS011;20879;55.668;37.858;2023-04-24T12:54:22;4.60;;;3.03;;
34673;SDS011;20879;55.668;37.858;2023-04-24T12:56:51;8.38;;;3.33;;
34673;SDS011;20879;55.668;37.858;2023-04-24T12:59:22;4.03;;;3.25;;
34673;SDS011;20879;55.668;37.858;2023-04-24T13:01:51;4.75;;;2.95;;
34673;SDS011;20879;55.668;37.858;2023-04-24T13:04:21;6.25;;;3.00;;
34673;SDS011;20879;55.668;37.858;2023-04-24T13:06:53;3.70;;;2.95;;
34673;SDS011;20879;55.668;37.858;2023-04-24T13:09:23;3.92;;;2.80;;
34673;SDS011;20879;55.668;37.858;2023-04-24T13:11:53;6.05;;;2.80;;
34673;SDS011;20879;55.668;37.858;2023-04-24T13:14:23;4.05;;;2.80;;
34673;SDS011;20879;55.668;37.858;2023-04-24T13:16:52;5.00;;;3.05;;
34673;SDS011;20879;55.668;37.858;2023-04-24T13:19:24;7.13;;;2.92;;
34673;SDS011;20879;55.668;37.858;2023-04-24T13:24:42;6.78;;;3.03;;
34673;SDS011;20879;55.668;37.858;2023-04-24T13:27:11;8.23;;;3.05;;
34673;SDS011;20879;55.668;37.858;2023-04-24T13:29:45;5.88;;;3.08;;
34673;SDS011;20879;55.668;37.858;2023-04-24T13:32:15;10.23;;;3.17;;
34673;SDS011;20879;55.668;37.858;2023-04-24T13:34:47;5.03;;;2.65;;
34673;SDS011;20879;55.668;37.858;2023-04-24T13:39:48;4.78;;;2.70;;
34673;SDS011;20879;55.668;37.858;2023-04-24T13:44:53;7.22;;;2.60;;
34673;SDS011;20879;55.668;37.858;2023-04-24T13:47:40;9.75;;;2.83;;
34673;SDS011;20879;55.668;37.858;2023-04-24T13:50:10;4.32;;;2.50;;
34673;SDS011;20879;55.668;37.858;2023-04-24T13:52:41;6.75;;;2.92;;
34673;SDS011;20879;55.668;37.858;2023-04-24T13:55:10;6.88;;;3.10;;
34673;SDS011;20879;55.668;37.858;2023-04-24T13:57:40;6.18;;;3.08;;
34673;SDS011;20879;55.668;37.858;2023-04-24T14:00:16;5.82;;;3.20;;
34673;SDS011;20879;55.668;37.858;2023-04-24T14:02:47;6.70;;;3.20;;
34673;SDS011;20879;55.668;37.858;2023-04-24T14:05:17;7.07;;;2.80;;
34673;SDS011;20879;55.668;37.858;2023-04-24T14:07:51;8.30;;;3.38;;
34673;SDS011;20879;55.668;37.858;2023-04-24T14:10:20;7.30;;;3.35;;
34673;SDS011;20879;55.668;37.858;2023-04-24T14:12:49;7.57;;;3.35;;
34673;SDS011;20879;55.668;37.858;2023-04-24T14:15:24;7.30;;;3.05;;
34673;SDS011;20879;55.668;37.858;2023-04-24T14:17:54;4.97;;;2.92;;
34673;SDS011;20879;55.668;37.858;2023-04-24T14:20:28;6.45;;;2.80;;
34673;SDS011;20879;55.668;37.858;2023-04-24T14:23:00;7.05;;;2.75;;
34673;SDS011;20879;55.668;37.858;2023-04-24T14:25:30;7.40;;;2.85;;
34673;SDS011;20879;55.668;37.858;2023-04-24T14:27:59;7.45;;;2.92;;
34673;SDS011;20879;55.668;37.858;2023-04-24T14:30:29;9.00;;;2.78;;
34673;SDS011;20879;55.668;37.858;2023-04-24T14:32:59;11.70;;;2.97;;
34673;SDS011;20879;55.668;37.858;2023-04-24T14:35:28;3.10;;;2.80;;
34673;SDS011;20879;55.668;37.858;2023-04-24T14:38:06;6.25;;;2.53;;
34673;SDS011;20879;55.668;37.858;2023-04-24T14:40:36;7.05;;;3.15;;
34673;SDS011;20879;55.668;37.858;2023-04-24T14:43:09;5.18;;;2.50;;
34673;SDS011;20879;55.668;37.858;2023-04-24T14:45:38;11.35;;;3.10;;
34673;SDS011;20879;55.668;37.858;2023-04-24T14:48:13;10.13;;;3.03;;
34673;SDS011;20879;55.668;37.858;2023-04-24T14:50:44;12.68;;;2.92;;
34673;SDS011;20879;55.668;37.858;2023-04-24T14:53:16;8.93;;;3.30;;
34673;SDS011;20879;55.668;37.858;2023-04-24T14:55:45;7.35;;;2.67;;
34673;SDS011;20879;55.668;37.858;2023-04-24T14:58:14;9.40;;;3.13;;
34673;SDS011;20879;55.668;37.858;2023-04-24T15:00:44;11.55;;;3.13;;
34673;SDS011;20879;55.668;37.858;2023-04-24T15:03:16;8.80;;;2.80;;
34673;SDS011;20879;55.668;37.858;2023-04-24T15:05:52;7.35;;;3.20;;
34673;SDS011;20879;55.668;37.858;2023-04-24T15:08:29;10.23;;;3.22;;
34673;SDS011;20879;55.668;37.858;2023-04-24T15:10:58;14.07;;;3.08;;
34673;SDS011;20879;55.668;37.858;2023-04-24T15:13:44;9.55;;;3.70;;
34673;SDS011;20879;55.668;37.858;2023-04-24T15:16:14;7.32;;;3.00;;
34673;SDS011;20879;55.668;37.858;2023-04-24T15:18:43;5.13;;;2.70;;
34673;SDS011;20879;55.668;37.858;2023-04-24T15:21:12;11.23;;;3.30;;
34673;SDS011;20879;55.668;37.858;2023-04-24T15:23:44;7.57;;;3.22;;
34673;SDS011;20879;55.668;37.858;2023-04-24T15:26:14;5.72;;;3.13;;
34673;SDS011;20879;55.668;37.858;2023-04-24T15:28:43;8.98;;;3.90;;
34673;SDS011;20879;55.668;37.858;2023-04-24T15:31:13;5.30;;;3.05;;
34673;SDS011;20879;55.668;37.858;2023-04-24T15:33:42;8.88;;;2.95;;
34673;SDS011;20879;55.668;37.858;2023-04-24T15:36:18;11.18;;;3.53;;
34673;SDS011;20879;55.668;37.858;2023-04-24T15:38:49;11.73;;;3.08;;
34673;SDS011;20879;55.668;37.858;2023-04-24T15:41:19;9.25;;;3.50;;
34673;SDS011;20879;55.668;37.858;2023-04-24T15:43:48;6.32;;;3.40;;
34673;SDS011;20879;55.668;37.858;2023-04-24T15:46:18;8.98;;;3.60;;
34673;SDS011;20879;55.668;37.858;2023-04-24T15:48:48;13.80;;;3.65;;
34673;SDS011;20879;55.668;37.858;2023-04-24T15:51:17;7.47;;;3.60;;
34673;SDS011;20879;55.668;37.858;2023-04-24T15:53:47;11.75;;;3.67;;
34673;SDS011;20879;55.668;37.858;2023-04-24T15:56:18;10.02;;;3.95;;
34673;SDS011;20879;55.668;37.858;2023-04-24T15:58:55;11.88;;;3.90;;
34673;SDS011;20879;55.668;37.858;2023-04-24T16:01:26;5.38;;;3.35;;
34673;SDS011;20879;55.668;37.858;2023-04-24T16:03:56;10.93;;;3.85;;